sensor_id;sensor_type;location;lat;lon;timestamp;pressure;altitude;pressure_sealevel;temperature;humidity
62708;BME280;48769;51.624;5.886;2023-08-30T00:01:49;100723.06;;;14.95;100.00
62708;BME280;48769;51.624;5.886;2023-08-30T00:04:14;100720.16;;;14.98;100.00
62708;BME280;48769;51.624;5.886;2023-08-30T00:06:39;100721.56;;;14.91;100.00
62708;BME280;48769;51.624;5.886;2023-08-30T00:09:04;100719.88;;;14.90;100.00
62708;BME280;48769;51.624;5.886;2023-08-30T00:11:30;100717.34;;;14.88;100.00
62708;BME280;48769;51.624;5.886;2023-08-30T00:14:03;100714.56;;;14.90;100.00
62708;BME280;48769;51.624;5.886;2023-08-30T00:16:28;100708.16;;;14.92;100.00
62708;BME280;48769;51.624;5.886;2023-08-30T00:18:54;100713.16;;;14.97;100.00
62708;BME280;48769;51.624;5.886;2023-08-30T00:21:19;100706.03;;;14.85;100.00
62708;BME280;48769;51.624;5.886;2023-08-30T00:23:46;100710.53;;;14.71;100.00
62708;BME280;48769;51.624;5.886;2023-08-30T00:26:11;100703.09;;;14.64;100.00
62708;BME280;48769;51.624;5.886;2023-08-30T00:28:36;100698.53;;;14.66;100.00
62708;BME280;48769;51.624;5.886;2023-08-30T00:31:01;100695.22;;;14.62;100.00
62708;BME280;48769;51.624;5.886;2023-08-30T00:33:28;100696.94;;;14.63;100.00
62708;BME280;48769;51.624;5.886;2023-08-30T00:35:58;100693.31;;;14.64;100.00
62708;BME280;48769;51.624;5.886;2023-08-30T00:38:23;100687.50;;;14.59;100.00
62708;BME280;48769;51.624;5.886;2023-08-30T00:40:48;100696.31;;;14.60;100.00
62708;BME280;48769;51.624;5.886;2023-08-30T00:43:14;100685.47;;;14.63;100.00
62708;BME280;48769;51.624;5.886;2023-08-30T00:45:39;100690.16;;;14.59;100.00
62708;BME280;48769;51.624;5.886;2023-08-30T00:48:05;100689.25;;;14.46;100.00
62708;BME280;48769;51.624;5.886;2023-08-30T00:50:31;100698.41;;;14.42;100.00
62708;BME280;48769;51.624;5.886;2023-08-30T00:52:56;100689.28;;;14.33;100.00
62708;BME280;48769;51.624;5.886;2023-08-30T00:55:21;100692.03;;;14.32;100.00
62708;BME280;48769;51.624;5.886;2023-08-30T00:57:47;100692.78;;;14.21;100.00
62708;BME280;48769;51.624;5.886;2023-08-30T01:00:12;100688.00;;;14.13;100.00
62708;BME280;48769;51.624;5.886;2023-08-30T01:02:37;100692.88;;;14.19;100.00
62708;BME280;48769;51.624;5.886;2023-08-30T01:05:03;100683.09;;;14.20;100.00
62708;BME280;48769;51.624;5.886;2023-08-30T01:07:28;100688.97;;;14.25;100.00
62708;BME280;48769;51.624;5.886;2023-08-30T01:09:54;100685.25;;;14.27;100.00
62708;BME280;48769;51.624;5.886;2023-08-30T01:12:29;100689.16;;;14.22;100.00
62708;BME280;48769;51.624;5.886;2023-08-30T01:15:18;100677.81;;;14.07;100.00
62708;BME280;48769;51.624;5.886;2023-08-30T01:17:43;100678.97;;;14.03;100.00
62708;BME280;48769;51.624;5.886;2023-08-30T01:20:10;100671.31;;;14.11;100.00
62708;BME280;48769;51.624;5.886;2023-08-30T01:23:03;100668.34;;;14.16;100.00
62708;BME280;48769;51.624;5.886;2023-08-30T01:25:57;100668.47;;;14.14;100.00
62708;BME280;48769;51.624;5.886;2023-08-30T01:28:30;100674.28;;;14.19;100.00
62708;BME280;48769;51.624;5.886;2023-08-30T01:30:57;100669.72;;;14.21;100.00
62708;BME280;48769;51.624;5.886;2023-08-30T01:33:24;100668.69;;;14.24;100.00
62708;BME280;48769;51.624;5.886;2023-08-30T01:35:53;100666.09;;;14.22;100.00
62708;BME280;48769;51.624;5.886;2023-08-30T01:38:19;100662.72;;;14.20;100.00
62708;BME280;48769;51.624;5.886;2023-08-30T01:40:45;100669.53;;;14.12;100.00
62708;BME280;48769;51.624;5.886;2023-08-30T01:43:11;100663.34;;;14.11;100.00
62708;BME280;48769;51.624;5.886;2023-08-30T01:45:43;100670.16;;;14.15;100.00
62708;BME280;48769;51.624;5.886;2023-08-30T01:48:18;100670.91;;;14.17;100.00
62708;BME280;48769;51.624;5.886;2023-08-30T01:50:45;100666.53;;;14.16;100.00
62708;BME280;48769;51.624;5.886;2023-08-30T01:53:12;100659.75;;;14.12;100.00
62708;BME280;48769;51.624;5.886;2023-08-30T01:55:38;100660.78;;;14.10;100.00
62708;BME280;48769;51.624;5.886;2023-08-30T01:58:05;100664.28;;;14.10;100.00
62708;BME280;48769;51.624;5.886;2023-08-30T02:00:31;100673.13;;;14.11;100.00
62708;BME280;48769;51.624;5.886;2023-08-30T02:02:57;100675.47;;;14.15;100.00
62708;BME280;48769;51.624;5.886;2023-08-30T02:05:22;100671.84;;;14.16;100.00
62708;BME280;48769;51.624;5.886;2023-08-30T02:08:04;100666.84;;;14.24;100.00
62708;BME280;48769;51.624;5.886;2023-08-30T02:10:35;100668.69;;;14.24;100.00
62708;BME280;48769;51.624;5.886;2023-08-30T02:13:04;100666.09;;;14.22;100.00
62708;BME280;48769;51.624;5.886;2023-08-30T02:15:30;100665.25;;;14.22;100.00
62708;BME280;48769;51.624;5.886;2023-08-30T02:17:57;100666.84;;;14.24;100.00
62708;BME280;48769;51.624;5.886;2023-08-30T02:20:23;100666.53;;;14.29;100.00
62708;BME280;48769;51.624;5.886;2023-08-30T02:22:48;100655.06;;;14.16;100.00
62708;BME280;48769;51.624;5.886;2023-08-30T02:25:13;100650.59;;;14.03;100.00
62708;BME280;48769;51.624;5.886;2023-08-30T02:27:39;100652.94;;;14.08;100.00
62708;BME280;48769;51.624;5.886;2023-08-30T02:30:05;100652.31;;;14.05;100.00
62708;BME280;48769;51.624;5.886;2023-08-30T02:32:30;100653.38;;;14.02;100.00
62708;BME280;48769;51.624;5.886;2023-08-30T02:34:56;100648.13;;;14.00;100.00
62708;BME280;48769;51.624;5.886;2023-08-30T02:37:22;100646.56;;;13.98;100.00
62708;BME280;48769;51.624;5.886;2023-08-30T02:39:47;100645.06;;;13.94;100.00
62708;BME280;48769;51.624;5.886;2023-08-30T02:42:12;100641.88;;;13.89;100.00
62708;BME280;48769;51.624;5.886;2023-08-30T02:44:38;100642.72;;;13.89;100.00
62708;BME280;48769;51.624;5.886;2023-08-30T02:47:03;100632.44;;;13.85;100.00
62708;BME280;48769;51.624;5.886;2023-08-30T02:49:28;100632.66;;;13.82;100.00
62708;BME280;48769;51.624;5.886;2023-08-30T02:51:57;100630.19;;;13.78;100.00
62708;BME280;48769;51.624;5.886;2023-08-30T02:54:22;100626.78;;;13.76;100.00
62708;BME280;48769;51.624;5.886;2023-08-30T02:56:48;100627.00;;;13.73;100.00
62708;BME280;48769;51.624;5.886;2023-08-30T02:59:14;100623.59;;;13.71;100.00
62708;BME280;48769;51.624;5.886;2023-08-30T03:01:40;100621.91;;;13.70;100.00
62708;BME280;48769;51.624;5.886;2023-08-30T03:04:05;100628.25;;;13.68;100.00
62708;BME280;48769;51.624;5.886;2023-08-30T03:06:32;100628.38;;;13.66;100.00
62708;BME280;48769;51.624;5.886;2023-08-30T03:08:58;100623.28;;;13.63;100.00
62708;BME280;48769;51.624;5.886;2023-08-30T03:11:23;100633.13;;;13.61;100.00
62708;BME280;48769;51.624;5.886;2023-08-30T03:13:48;100626.13;;;13.60;100.00
62708;BME280;48769;51.624;5.886;2023-08-30T03:16:15;100625.94;;;13.63;100.00
62708;BME280;48769;51.624;5.886;2023-08-30T03:18:42;100616.06;;;13.65;100.00
62708;BME280;48769;51.624;5.886;2023-08-30T03:21:08;100616.78;;;13.67;100.00
62708;BME280;48769;51.624;5.886;2023-08-30T03:23:33;100613.22;;;13.68;100.00
62708;BME280;48769;51.624;5.886;2023-08-30T03:26:16;100604.28;;;13.69;100.00
62708;BME280;48769;51.624;5.886;2023-08-30T03:28:42;100606.81;;;13.71;100.00
62708;BME280;48769;51.624;5.886;2023-08-30T03:31:16;100602.91;;;13.76;100.00
62708;BME280;48769;51.624;5.886;2023-08-30T03:33:45;100592.19;;;13.78;100.00
62708;BME280;48769;51.624;5.886;2023-08-30T03:36:11;100591.00;;;13.82;100.00
62708;BME280;48769;51.624;5.886;2023-08-30T03:38:37;100589.09;;;13.84;100.00
62708;BME280;48769;51.624;5.886;2023-08-30T03:41:03;100590.47;;;13.90;100.00
62708;BME280;48769;51.624;5.886;2023-08-30T03:43:29;100580.69;;;13.90;100.00
62708;BME280;48769;51.624;5.886;2023-08-30T03:45:54;100581.31;;;13.94;100.00
62708;BME280;48769;51.624;5.886;2023-08-30T03:48:20;100571.78;;;13.91;100.00
62708;BME280;48769;51.624;5.886;2023-08-30T03:50:45;100574.53;;;13.90;100.00
62708;BME280;48769;51.624;5.886;2023-08-30T03:53:10;100569.22;;;13.90;100.00
62708;BME280;48769;51.624;5.886;2023-08-30T03:55:35;100568.38;;;13.89;100.00
62708;BME280;48769;51.624;5.886;2023-08-30T03:58:01;100559.03;;;13.84;100.00
62708;BME280;48769;51.624;5.886;2023-08-30T04:00:26;100564.75;;;13.77;100.00
62708;BME280;48769;51.624;5.886;2023-08-30T04:02:52;100558.72;;;13.75;100.00
62708;BME280;48769;51.624;5.886;2023-08-30T04:05:17;100552.88;;;13.70;100.00
62708;BME280;48769;51.624;5.886;2023-08-30T04:07:42;100555.00;;;13.65;100.00
62708;BME280;48769;51.624;5.886;2023-08-30T04:10:08;100550.63;;;13.64;100.00
62708;BME280;48769;51.624;5.886;2023-08-30T04:12:34;100543.75;;;13.62;100.00
62708;BME280;48769;51.624;5.886;2023-08-30T04:15:02;100532.47;;;13.58;100.00
62708;BME280;48769;51.624;5.886;2023-08-30T04:17:28;100526.44;;;13.56;100.00
62708;BME280;48769;51.624;5.886;2023-08-30T04:19:53;100527.38;;;13.55;100.00
62708;BME280;48769;51.624;5.886;2023-08-30T04:22:19;100525.91;;;13.51;100.00
62708;BME280;48769;51.624;5.886;2023-08-30T04:24:46;100521.66;;;13.48;100.00
62708;BME280;48769;51.624;5.886;2023-08-30T04:27:11;100512.13;;;13.46;100.00
62708;BME280;48769;51.624;5.886;2023-08-30T04:29:36;100515.91;;;13.42;100.00
62708;BME280;48769;51.624;5.886;2023-08-30T04:32:02;100509.13;;;13.38;100.00
62708;BME280;48769;51.624;5.886;2023-08-30T04:34:27;100508.50;;;13.34;100.00
62708;BME280;48769;51.624;5.886;2023-08-30T04:36:54;100505.72;;;13.36;100.00
62708;BME280;48769;51.624;5.886;2023-08-30T04:39:19;100509.34;;;13.35;100.00
62708;BME280;48769;51.624;5.886;2023-08-30T04:41:44;100512.19;;;13.31;100.00
62708;BME280;48769;51.624;5.886;2023-08-30T04:44:10;100513.66;;;13.23;100.00
62708;BME280;48769;51.624;5.886;2023-08-30T04:46:35;100511.84;;;13.23;100.00
62708;BME280;48769;51.624;5.886;2023-08-30T04:49:00;100512.53;;;13.27;100.00
62708;BME280;48769;51.624;5.886;2023-08-30T04:51:26;100508.81;;;13.29;100.00
62708;BME280;48769;51.624;5.886;2023-08-30T04:53:51;100501.06;;;13.26;100.00
62708;BME280;48769;51.624;5.886;2023-08-30T04:56:16;100501.78;;;13.28;100.00
62708;BME280;48769;51.624;5.886;2023-08-30T04:58:43;100505.09;;;13.32;100.00
62708;BME280;48769;51.624;5.886;2023-08-30T05:01:09;100504.44;;;13.28;100.00
62708;BME280;48769;51.624;5.886;2023-08-30T05:03:34;100502.53;;;13.30;100.00
62708;BME280;48769;51.624;5.886;2023-08-30T05:06:00;100504.25;;;13.31;100.00
62708;BME280;48769;51.624;5.886;2023-08-30T05:08:25;100505.19;;;13.30;100.00
62708;BME280;48769;51.624;5.886;2023-08-30T05:10:54;100509.34;;;13.35;100.00
62708;BME280;48769;51.624;5.886;2023-08-30T05:13:19;100514.97;;;13.43;100.00
62708;BME280;48769;51.624;5.886;2023-08-30T05:15:44;100511.91;;;13.49;100.00
62708;BME280;48769;51.624;5.886;2023-08-30T05:18:10;100513.81;;;13.60;100.00
62708;BME280;48769;51.624;5.886;2023-08-30T05:20:35;100506.28;;;13.66;100.00
62708;BME280;48769;51.624;5.886;2023-08-30T05:23:00;100502.13;;;13.62;100.00
62708;BME280;48769;51.624;5.886;2023-08-30T05:25:25;100495.44;;;13.69;100.00
62708;BME280;48769;51.624;5.886;2023-08-30T05:27:51;100491.38;;;13.76;100.00
62708;BME280;48769;51.624;5.886;2023-08-30T05:30:16;100497.03;;;13.85;100.00
62708;BME280;48769;51.624;5.886;2023-08-30T05:32:41;100484.69;;;13.84;100.00
62708;BME280;48769;51.624;5.886;2023-08-30T05:35:07;100490.00;;;13.84;100.00
62708;BME280;48769;51.624;5.886;2023-08-30T05:37:32;100482.16;;;13.82;100.00
62708;BME280;48769;51.624;5.886;2023-08-30T05:39:57;100476.63;;;13.85;100.00
62708;BME280;48769;51.624;5.886;2023-08-30T05:42:23;100473.84;;;13.87;100.00
62708;BME280;48769;51.624;5.886;2023-08-30T05:44:48;100477.66;;;13.95;100.00
62708;BME280;48769;51.624;5.886;2023-08-30T05:47:13;100477.22;;;14.01;100.00
62708;BME280;48769;51.624;5.886;2023-08-30T05:49:40;100483.38;;;14.02;100.00
62708;BME280;48769;51.624;5.886;2023-08-30T05:52:06;100474.97;;;14.08;100.00
62708;BME280;48769;51.624;5.886;2023-08-30T05:54:31;100473.56;;;14.15;100.00
62708;BME280;48769;51.624;5.886;2023-08-30T05:56:58;100487.81;;;14.14;100.00
62708;BME280;48769;51.624;5.886;2023-08-30T05:59:24;100479.72;;;14.16;100.00
62708;BME280;48769;51.624;5.886;2023-08-30T06:01:49;100477.59;;;14.21;100.00
62708;BME280;48769;51.624;5.886;2023-08-30T06:04:14;100468.22;;;14.28;100.00
62708;BME280;48769;51.624;5.886;2023-08-30T06:06:40;100455.28;;;14.23;100.00
62708;BME280;48769;51.624;5.886;2023-08-30T06:09:05;100462.28;;;14.24;100.00
62708;BME280;48769;51.624;5.886;2023-08-30T06:11:32;100463.53;;;14.32;100.00
62708;BME280;48769;51.624;5.886;2023-08-30T06:13:57;100450.75;;;14.37;100.00
62708;BME280;48769;51.624;5.886;2023-08-30T06:16:24;100453.91;;;14.42;100.00
62708;BME280;48769;51.624;5.886;2023-08-30T06:18:49;100452.22;;;14.41;100.00
62708;BME280;48769;51.624;5.886;2023-08-30T06:21:14;100441.38;;;14.44;100.00
62708;BME280;48769;51.624;5.886;2023-08-30T06:23:40;100446.03;;;14.53;100.00
62708;BME280;48769;51.624;5.886;2023-08-30T06:26:05;100441.16;;;14.47;100.00
62708;BME280;48769;51.624;5.886;2023-08-30T06:28:31;100438.50;;;14.47;100.00
62708;BME280;48769;51.624;5.886;2023-08-30T06:30:56;100446.22;;;14.50;100.00
62708;BME280;48769;51.624;5.886;2023-08-30T06:33:22;100444.09;;;14.55;100.00
62708;BME280;48769;51.624;5.886;2023-08-30T06:35:49;100434.94;;;14.59;100.00
62708;BME280;48769;51.624;5.886;2023-08-30T06:38:18;100431.81;;;14.65;100.00
62708;BME280;48769;51.624;5.886;2023-08-30T06:40:45;100433.41;;;14.68;100.00
62708;BME280;48769;51.624;5.886;2023-08-30T06:43:10;100427.22;;;14.67;100.00
62708;BME280;48769;51.624;5.886;2023-08-30T06:45:37;100432.84;;;14.76;100.00
62708;BME280;48769;51.624;5.886;2023-08-30T06:48:03;100423.66;;;14.80;100.00
62708;BME280;48769;51.624;5.886;2023-08-30T06:50:29;100429.69;;;14.82;100.00
62708;BME280;48769;51.624;5.886;2023-08-30T06:52:54;100437.34;;;14.86;100.00
62708;BME280;48769;51.624;5.886;2023-08-30T06:55:19;100429.22;;;14.88;100.00
62708;BME280;48769;51.624;5.886;2023-08-30T06:57:47;100432.63;;;14.90;100.00
62708;BME280;48769;51.624;5.886;2023-08-30T07:00:13;100427.06;;;14.93;100.00
62708;BME280;48769;51.624;5.886;2023-08-30T07:02:39;100427.44;;;15.00;100.00
62708;BME280;48769;51.624;5.886;2023-08-30T07:05:05;100430.47;;;15.06;100.00
62708;BME280;48769;51.624;5.886;2023-08-30T07:07:31;100436.31;;;15.11;100.00
62708;BME280;48769;51.624;5.886;2023-08-30T07:09:57;100430.50;;;15.17;100.00
62708;BME280;48769;51.624;5.886;2023-08-30T07:12:23;100436.69;;;15.18;100.00
62708;BME280;48769;51.624;5.886;2023-08-30T07:14:48;100446.22;;;15.20;100.00
62708;BME280;48769;51.624;5.886;2023-08-30T07:17:13;100446.84;;;15.24;100.00
62708;BME280;48769;51.624;5.886;2023-08-30T07:19:39;100451.31;;;15.24;100.00
62708;BME280;48769;51.624;5.886;2023-08-30T07:22:04;100464.50;;;15.25;100.00
62708;BME280;48769;51.624;5.886;2023-08-30T07:24:30;100466.19;;;15.26;100.00
62708;BME280;48769;51.624;5.886;2023-08-30T07:26:55;100468.16;;;15.24;100.00
62708;BME280;48769;51.624;5.886;2023-08-30T07:29:20;100469.22;;;15.22;100.00
62708;BME280;48769;51.624;5.886;2023-08-30T07:31:46;100472.59;;;15.12;100.00
62708;BME280;48769;51.624;5.886;2023-08-30T07:34:12;100466.75;;;15.07;100.00
62708;BME280;48769;51.624;5.886;2023-08-30T07:36:37;100466.97;;;15.04;100.00
62708;BME280;48769;51.624;5.886;2023-08-30T07:39:03;100462.63;;;14.92;100.00
62708;BME280;48769;51.624;5.886;2023-08-30T07:41:28;100456.69;;;14.88;100.00
62708;BME280;48769;51.624;5.886;2023-08-30T07:43:54;100442.72;;;14.73;100.00
62708;BME280;48769;51.624;5.886;2023-08-30T07:46:19;100439.75;;;14.54;100.00
62708;BME280;48769;51.624;5.886;2023-08-30T07:48:44;100425.66;;;14.41;100.00
62708;BME280;48769;51.624;5.886;2023-08-30T07:51:10;100425.34;;;14.33;100.00
62708;BME280;48769;51.624;5.886;2023-08-30T07:53:35;100411.06;;;14.22;100.00
62708;BME280;48769;51.624;5.886;2023-08-30T07:56:00;100415.78;;;14.06;100.00
62708;BME280;48769;51.624;5.886;2023-08-30T07:58:26;100418.56;;;14.05;100.00
62708;BME280;48769;51.624;5.886;2023-08-30T08:00:56;100414.78;;;13.96;100.00
62708;BME280;48769;51.624;5.886;2023-08-30T08:03:22;100406.94;;;13.94;100.00
62708;BME280;48769;51.624;5.886;2023-08-30T08:05:47;100404.06;;;13.97;100.00
62708;BME280;48769;51.624;5.886;2023-08-30T08:08:12;100408.72;;;13.94;100.00
62708;BME280;48769;51.624;5.886;2023-08-30T08:10:39;100402.69;;;13.92;100.00
62708;BME280;48769;51.624;5.886;2023-08-30T08:13:04;100405.78;;;13.86;100.00
62708;BME280;48769;51.624;5.886;2023-08-30T08:15:30;100409.91;;;13.90;100.00
62708;BME280;48769;51.624;5.886;2023-08-30T08:18:01;100404.59;;;13.90;100.00
62708;BME280;48769;51.624;5.886;2023-08-30T08:20:29;100405.00;;;13.96;100.00
62708;BME280;48769;51.624;5.886;2023-08-30T08:22:54;100395.84;;;14.00;100.00
62708;BME280;48769;51.624;5.886;2023-08-30T08:25:20;100398.19;;;14.05;100.00
62708;BME280;48769;51.624;5.886;2023-08-30T08:27:47;100394.78;;;14.03;100.00
62708;BME280;48769;51.624;5.886;2023-08-30T08:30:12;100392.56;;;13.97;100.00
62708;BME280;48769;51.624;5.886;2023-08-30T08:32:38;100390.13;;;13.94;100.00
62708;BME280;48769;51.624;5.886;2023-08-30T08:35:03;100389.19;;;13.95;100.00
62708;BME280;48769;51.624;5.886;2023-08-30T08:37:29;100392.47;;;13.98;100.00
62708;BME280;48769;51.624;5.886;2023-08-30T08:39:55;100390.53;;;14.00;100.00
62708;BME280;48769;51.624;5.886;2023-08-30T08:42:20;100389.69;;;14.00;100.00
62708;BME280;48769;51.624;5.886;2023-08-30T08:44:47;100396.50;;;14.04;100.00
62708;BME280;48769;51.624;5.886;2023-08-30T08:47:16;100379.47;;;14.07;100.00
62708;BME280;48769;51.624;5.886;2023-08-30T08:49:42;100381.41;;;14.05;100.00
62708;BME280;48769;51.624;5.886;2023-08-30T08:52:07;100381.03;;;14.09;100.00
62708;BME280;48769;51.624;5.886;2023-08-30T08:54:33;100370.53;;;14.08;100.00
62708;BME280;48769;51.624;5.886;2023-08-30T08:56:59;100369.81;;;14.06;100.00
62708;BME280;48769;51.624;5.886;2023-08-30T08:59:25;100372.09;;;14.10;100.00
62708;BME280;48769;51.624;5.886;2023-08-30T09:01:50;100368.38;;;14.13;100.00
62708;BME280;48769;51.624;5.886;2023-08-30T09:04:15;100374.38;;;14.03;100.00
62708;BME280;48769;51.624;5.886;2023-08-30T09:06:41;100381.63;;;14.01;100.00
62708;BME280;48769;51.624;5.886;2023-08-30T09:09:08;100370.53;;;14.08;100.00
62708;BME280;48769;51.624;5.886;2023-08-30T09:11:33;100369.72;;;14.07;100.00
62708;BME280;48769;51.624;5.886;2023-08-30T09:13:59;100370.31;;;14.11;100.00
62708;BME280;48769;51.624;5.886;2023-08-30T09:16:24;100374.03;;;14.08;100.00
62708;BME280;48769;51.624;5.886;2023-08-30T09:19:00;100363.91;;;14.13;100.00
62708;BME280;48769;51.624;5.886;2023-08-30T09:21:26;100367.31;;;14.15;100.00
62708;BME280;48769;51.624;5.886;2023-08-30T09:24:02;100373.63;;;14.25;100.00
62708;BME280;48769;51.624;5.886;2023-08-30T09:26:29;100373.75;;;14.24;100.00
62708;BME280;48769;51.624;5.886;2023-08-30T09:29:02;100373.63;;;14.25;100.00
62708;BME280;48769;51.624;5.886;2023-08-30T09:31:33;100373.19;;;14.32;100.00
62708;BME280;48769;51.624;5.886;2023-08-30T09:33:58;100365.78;;;14.24;100.00
62708;BME280;48769;51.624;5.886;2023-08-30T09:36:24;100376.75;;;14.19;100.00
62708;BME280;48769;51.624;5.886;2023-08-30T09:38:49;100372.41;;;14.18;100.00
62708;BME280;48769;51.624;5.886;2023-08-30T09:41:15;100373.84;;;14.22;100.00
62708;BME280;48769;51.624;5.886;2023-08-30T09:43:44;100380.88;;;14.23;100.00
62708;BME280;48769;51.624;5.886;2023-08-30T09:46:09;100373.41;;;14.29;100.00
62708;BME280;48769;51.624;5.886;2023-08-30T09:48:37;100368.94;;;14.29;100.00
62708;BME280;48769;51.624;5.886;2023-08-30T09:51:07;100377.06;;;14.39;100.00
62708;BME280;48769;51.624;5.886;2023-08-30T09:53:37;100369.84;;;14.41;100.00
62708;BME280;48769;51.624;5.886;2023-08-30T09:56:05;100374.38;;;14.52;100.00
62708;BME280;48769;51.624;5.886;2023-08-30T09:58:33;100366.44;;;14.63;100.00
62708;BME280;48769;51.624;5.886;2023-08-30T10:00:59;100371.69;;;14.76;100.00
62708;BME280;48769;51.624;5.886;2023-08-30T10:03:28;100374.59;;;14.84;100.00
62708;BME280;48769;51.624;5.886;2023-08-30T10:05:54;100359.38;;;14.86;100.00
62708;BME280;48769;51.624;5.886;2023-08-30T10:08:20;100359.47;;;14.84;100.00
62708;BME280;48769;51.624;5.886;2023-08-30T10:10:46;100354.38;;;14.81;100.00
62708;BME280;48769;51.624;5.886;2023-08-30T10:13:11;100348.22;;;14.81;100.00
62708;BME280;48769;51.624;5.886;2023-08-30T10:15:41;100352.56;;;14.82;100.00
62708;BME280;48769;51.624;5.886;2023-08-30T10:18:11;100351.38;;;14.86;100.00
62708;BME280;48769;51.624;5.886;2023-08-30T10:20:38;100353.69;;;14.90;100.00
62708;BME280;48769;51.624;5.886;2023-08-30T10:23:05;100352.84;;;14.90;100.00
62708;BME280;48769;51.624;5.886;2023-08-30T10:25:31;100349.09;;;15.04;100.00
62708;BME280;48769;51.624;5.886;2023-08-30T10:27:57;100352.50;;;15.17;100.00
62708;BME280;48769;51.624;5.886;2023-08-30T10:30:24;100354.66;;;15.23;100.00
62708;BME280;48769;51.624;5.886;2023-08-30T10:32:50;100354.78;;;15.33;100.00
62708;BME280;48769;51.624;5.886;2023-08-30T10:35:18;100353.44;;;15.50;100.00
62708;BME280;48769;51.624;5.886;2023-08-30T10:37:54;100341.97;;;15.60;100.00
62708;BME280;48769;51.624;5.886;2023-08-30T10:40:20;100351.91;;;15.70;100.00
62708;BME280;48769;51.624;5.886;2023-08-30T10:42:47;100351.75;;;15.71;100.00
62708;BME280;48769;51.624;5.886;2023-08-30T10:45:12;100344.97;;;15.78;100.00
62708;BME280;48769;51.624;5.886;2023-08-30T10:47:38;100348.94;;;15.84;100.00
62708;BME280;48769;51.624;5.886;2023-08-30T10:50:08;100349.69;;;15.86;100.00
62708;BME280;48769;51.624;5.886;2023-08-30T10:52:34;100353.06;;;15.88;100.00
62708;BME280;48769;51.624;5.886;2023-08-30T10:55:11;100351.81;;;16.03;100.00
62708;BME280;48769;51.624;5.886;2023-08-30T10:57:38;100348.84;;;16.18;100.00
62708;BME280;48769;51.624;5.886;2023-08-30T11:00:17;100358.38;;;16.31;100.00
62708;BME280;48769;51.624;5.886;2023-08-30T11:02:52;100346.31;;;16.37;100.00
62708;BME280;48769;51.624;5.886;2023-08-30T11:05:21;100352.84;;;16.44;100.00
62708;BME280;48769;51.624;5.886;2023-08-30T11:07:47;100344.31;;;16.50;100.00
62708;BME280;48769;51.624;5.886;2023-08-30T11:10:15;100344.78;;;16.55;100.00
62708;BME280;48769;51.624;5.886;2023-08-30T11:12:41;100348.84;;;16.71;100.00
62708;BME280;48769;51.624;5.886;2023-08-30T11:15:07;100339.41;;;16.88;100.00
62708;BME280;48769;51.624;5.886;2023-08-30T11:17:33;100335.91;;;16.87;100.00
62708;BME280;48769;51.624;5.886;2023-08-30T11:20:07;100330.31;;;16.90;100.00
62708;BME280;48769;51.624;5.886;2023-08-30T11:22:55;100335.75;;;16.89;100.00
62708;BME280;48769;51.624;5.886;2023-08-30T11:25:20;100333.25;;;16.87;100.00
62708;BME280;48769;51.624;5.886;2023-08-30T11:27:46;100332.72;;;16.93;100.00
62708;BME280;48769;51.624;5.886;2023-08-30T11:30:12;100328.00;;;17.07;100.00
62708;BME280;48769;51.624;5.886;2023-08-30T11:32:39;100331.56;;;17.17;100.00
62708;BME280;48769;51.624;5.886;2023-08-30T11:35:05;100333.44;;;17.26;100.00
62708;BME280;48769;51.624;5.886;2023-08-30T11:37:31;100325.00;;;17.31;100.00
62708;BME280;48769;51.624;5.886;2023-08-30T11:39:57;100321.63;;;17.38;100.00
62708;BME280;48769;51.624;5.886;2023-08-30T11:42:23;100315.63;;;17.46;100.00
62708;BME280;48769;51.624;5.886;2023-08-30T11:44:50;100298.31;;;17.40;100.00
62708;BME280;48769;51.624;5.886;2023-08-30T11:47:19;100302.69;;;17.41;100.00
62708;BME280;48769;51.624;5.886;2023-08-30T11:49:47;100308.59;;;17.45;100.00
62708;BME280;48769;51.624;5.886;2023-08-30T11:52:13;100315.91;;;17.43;100.00
62708;BME280;48769;51.624;5.886;2023-08-30T11:54:39;100334.03;;;17.39;100.00
62708;BME280;48769;51.624;5.886;2023-08-30T11:57:04;100351.69;;;17.31;100.00
62708;BME280;48769;51.624;5.886;2023-08-30T11:59:34;100354.78;;;17.26;100.00
62708;BME280;48769;51.624;5.886;2023-08-30T12:02:00;100349.13;;;17.19;100.00
62708;BME280;48769;51.624;5.886;2023-08-30T12:04:25;100345.16;;;17.14;100.00
62708;BME280;48769;51.624;5.886;2023-08-30T12:06:54;100341.25;;;17.18;100.00
62708;BME280;48769;51.624;5.886;2023-08-30T12:09:19;100346.03;;;17.24;100.00
62708;BME280;48769;51.624;5.886;2023-08-30T12:11:48;100346.31;;;17.21;100.00
62708;BME280;48769;51.624;5.886;2023-08-30T12:14:13;100343.78;;;17.19;100.00
62708;BME280;48769;51.624;5.886;2023-08-30T12:16:40;100347.03;;;17.23;100.00
62708;BME280;48769;51.624;5.886;2023-08-30T12:19:12;100342.38;;;17.25;100.00
62708;BME280;48769;51.624;5.886;2023-08-30T12:21:42;100333.56;;;17.34;100.00
62708;BME280;48769;51.624;5.886;2023-08-30T12:24:08;100338.63;;;17.68;100.00
62708;BME280;48769;51.624;5.886;2023-08-30T12:26:33;100336.44;;;18.02;100.00
62708;BME280;48769;51.624;5.886;2023-08-30T12:28:59;100328.59;;;18.20;100.00
62708;BME280;48769;51.624;5.886;2023-08-30T12:31:24;100335.31;;;18.24;100.00
62708;BME280;48769;51.624;5.886;2023-08-30T12:33:50;100320.66;;;18.48;100.00
62708;BME280;48769;51.624;5.886;2023-08-30T12:36:15;100329.97;;;18.43;100.00
62708;BME280;48769;51.624;5.886;2023-08-30T12:38:40;100337.56;;;18.29;100.00